Milwaukee, Wisconsin
Traffic Map
Current Weather Conditions
Milwaukee, Wisconsin
Few Clouds
Few Clouds
21°
Feels Like: 21°
Wind Chill: 21° Ceiling: Unl
Heat Index: 21° Visibility: 10mi
Dew Point: 13° Wind: 14mph
Humidity: 63% Direction: 130° (SE)
Pressure: 30.15in Gusts: 0mph
Raw Report DataKMKE 281452Z 13012KT 10SM FEW250 21/13 A3015 RMK AO2 SLP210 T02060133 51001
Traffic Incident Summary
Active as of:
Severity:
Category:
InformationThere was an issue retrieving the traffic information for this location. Please try a different location or try again shortly.
Advertisements
Track Severe Weather on mobile